Time;durP1;ratioP1;P1;durP2;ratioP2;P2;SDS_P1;SDS_P2;PMS_P1;PMS_P2;Temp;Humidity;BMP_temperature;BMP_pressure;BME280_temperature;BME280_humidity;BME280_pressure;Samples;Min_cycle;Max_cycle;Signal;HPM_P1;HPM_P2
2021/04/03 00:00:29;;;;;;;3.47;1.90;;;22.70;30.40;;;;;;8471417;27;20074;-57
2021/04/03 00:04:30;;;;;;;2.47;1.98;;;22.60;30.30;;;;;;8458687;28;20392;-57
2021/04/03 00:08:30;;;;;;;2.50;1.90;;;22.60;30.40;;;;;;8457016;28;20024;-56
2021/04/03 00:12:31;;;;;;;2.17;1.70;;;22.60;30.40;;;;;;8463282;28;20054;-57
2021/04/03 00:16:31;;;;;;;2.70;1.77;;;22.50;30.40;;;;;;8458421;28;20039;-56
2021/04/03 00:20:33;;;;;;;1.97;1.70;;;22.50;30.30;;;;;;8456412;28;20062;-57
2021/04/03 00:24:34;;;;;;;3.83;1.90;;;22.50;30.30;;;;;;8458538;28;20043;-57
2021/04/03 00:28:34;;;;;;;2.43;1.60;;;22.50;30.20;;;;;;8462297;28;20054;-56
2021/04/03 00:32:35;;;;;;;2.20;1.63;;;22.50;30.20;;;;;;8456287;28;20063;-57
2021/04/03 00:36:35;;;;;;;3.00;1.63;;;22.40;30.20;;;;;;8476102;28;20130;-56
2021/04/03 00:40:44;;;;;;;2.57;1.80;;;22.40;30.20;;;;;;8482948;28;20052;-56
2021/04/03 00:44:46;;;;;;;2.10;1.90;;;22.40;30.20;;;;;;8460576;28;20047;-57
2021/04/03 00:48:46;;;;;;;4.00;1.58;;;22.40;30.20;;;;;;8460041;28;20036;-56
2021/04/03 00:52:47;;;;;;;2.17;1.63;;;22.30;30.20;;;;;;8457904;28;20056;-56
2021/04/03 00:56:48;;;;;;;2.22;1.55;;;22.30;30.20;;;;;;8456089;28;20032;-57
2021/04/03 01:00:49;;;;;;;2.40;2.20;;;22.30;30.20;;;;;;8457643;28;20037;-56
2021/04/03 01:04:50;;;;;;;2.28;1.55;;;22.30;30.20;;;;;;8468716;28;20028;-57
2021/04/03 01:08:50;;;;;;;1.93;1.73;;;22.30;30.20;;;;;;8462968;28;20097;-56
2021/04/03 01:12:54;;;;;;;2.13;1.57;;;22.20;30.10;;;;;;8464608;27;20035;-57
2021/04/03 01:17:10;;;;;;;2.10;1.77;;;22.20;30.20;;;;;;8463952;28;20110;-57
2021/04/03 01:21:38;;;;;;;2.00;1.52;;;22.20;30.20;;;;;;8465666;28;20383;-57
2021/04/03 01:26:33;;;;;;;1.90;1.70;;;22.20;30.20;;;;;;8468215;28;20081;-57
2021/04/03 01:30:36;;;;;;;4.00;1.95;;;22.10;30.20;;;;;;8309484;28;20454;-56
2021/04/03 01:34:40;;;;;;;2.33;1.80;;;22.10;30.10;;;;;;8455514;28;20039;-56
2021/04/03 01:38:56;;;;;;;3.05;1.80;;;22.10;30.20;;;;;;8461847;28;20080;-57
2021/04/03 01:43:03;;;;;;;2.30;1.60;;;22.10;30.20;;;;;;8463271;28;20046;-56
2021/04/03 01:47:05;;;;;;;1.95;1.75;;;22.00;30.20;;;;;;8467351;28;20028;-56
2021/04/03 01:51:06;;;;;;;2.55;1.90;;;22.00;30.20;;;;;;8461511;28;20497;-57
2021/04/03 01:55:10;;;;;;;3.38;1.60;;;22.00;30.20;;;;;;8462474;28;20036;-57
2021/04/03 01:59:12;;;;;;;2.40;1.77;;;22.00;30.70;;;;;;8461238;28;20497;-57
2021/04/03 02:03:13;;;;;;;2.47;1.67;;;22.00;30.20;;;;;;8462517;28;20036;-56
2021/04/03 02:07:17;;;;;;;1.98;1.73;;;21.90;30.20;;;;;;8466698;28;20023;-56
2021/04/03 02:11:19;;;;;;;3.75;2.22;;;21.90;30.20;;;;;;8460490;28;20058;-56
2021/04/03 02:15:22;;;;;;;2.00;1.80;;;21.90;30.70;;;;;;8461367;28;20043;-56
2021/04/03 02:19:23;;;;;;;4.20;1.80;;;21.90;30.20;;;;;;8462289;27;20481;-56
2021/04/03 02:23:27;;;;;;;2.35;1.70;;;21.80;30.10;;;;;;8464951;28;20063;-57
2021/04/03 02:27:28;;;;;;;2.78;1.80;;;21.80;30.60;;;;;;8461728;28;20038;-57
2021/04/03 02:31:29;;;;;;;;;;;21.80;30.20;;;;;;8462005;28;20047;-57
2021/04/03 02:35:30;;;;;;;2.35;1.83;;;21.80;30.10;;;;;;8459816;28;19919;-55
2021/04/03 02:39:31;;;;;;;1.90;1.60;;;21.80;30.10;;;;;;8461422;28;20043;-57
2021/04/03 02:43:47;;;;;;;1.60;1.50;;;21.80;30.10;;;;;;8465601;28;20044;-57
2021/04/03 02:47:51;;;;;;;3.50;2.08;;;21.70;30.10;;;;;;8459213;28;20499;-57
2021/04/03 02:51:55;;;;;;;2.90;1.80;;;21.70;30.10;;;;;;8461061;28;20047;-57
2021/04/03 02:55:59;;;;;;;2.65;1.95;;;21.70;30.10;;;;;;8460817;28;20334;-57
2021/04/03 03:00:05;;;;;;;2.20;2.00;;;21.70;30.10;;;;;;8461995;28;20028;-57
2021/04/03 03:04:08;;;;;;;2.50;1.98;;;21.60;30.00;;;;;;8464443;28;20059;-57
2021/04/03 03:08:11;;;;;;;2.92;1.85;;;21.60;30.00;;;;;;8458619;28;20035;-55
2021/04/03 03:12:14;;;;;;;2.55;2.05;;;21.60;30.10;;;;;;8460506;28;20119;-55
2021/04/03 03:16:19;;;;;;;2.90;1.90;;;21.60;30.10;;;;;;8460011;28;20039;-57
2021/04/03 03:20:20;;;;;;;3.60;2.17;;;21.60;30.10;;;;;;8462723;28;20039;-57
2021/04/03 03:24:20;;;;;;;4.50;2.17;;;21.60;30.00;;;;;;8459580;28;20374;-57
2021/04/03 03:28:22;;;;;;;2.70;1.73;;;21.60;30.00;;;;;;8459785;28;20400;-57
2021/04/03 03:32:23;;;;;;;2.78;1.90;;;21.70;30.00;;;;;;8457779;28;20036;-56
2021/04/03 03:36:25;;;;;;;2.90;1.90;;;21.70;30.00;;;;;;8462787;28;20028;-57
2021/04/03 03:40:26;;;;;;;2.85;2.00;;;21.70;29.90;;;;;;8461578;28;20068;-57
2021/04/03 03:44:27;;;;;;;2.28;1.92;;;21.80;30.00;;;;;;8457514;28;20160;-56
2021/04/03 03:48:27;;;;;;;2.53;1.90;;;21.80;29.90;;;;;;8458951;28;20039;-57
2021/04/03 03:52:28;;;;;;;5.17;1.80;;;21.80;29.90;;;;;;8459016;28;20062;-57
2021/04/03 03:56:28;;;;;;;2.83;2.03;;;21.80;29.90;;;;;;8461869;28;21497;-57
2021/04/03 04:00:29;;;;;;;2.20;1.93;;;21.80;29.90;;;;;;8486007;27;20041;-57
2021/04/03 04:04:30;;;;;;;2.72;1.80;;;21.90;29.90;;;;;;8475512;27;20036;-57
2021/04/03 04:08:31;;;;;;;2.83;2.20;;;21.90;29.90;;;;;;8456638;28;20036;-57
2021/04/03 04:12:32;;;;;;;2.83;2.17;;;21.90;29.90;;;;;;8462725;28;20130;-57
2021/04/03 04:16:32;;;;;;;3.10;2.30;;;21.90;29.90;;;;;;8458356;28;20397;-56
2021/04/03 04:20:33;;;;;;;3.22;2.05;;;21.90;29.80;;;;;;8456527;28;20036;-57
2021/04/03 04:24:33;;;;;;;2.27;2.00;;;21.90;29.80;;;;;;8458237;28;20131;-57
2021/04/03 04:28:34;;;;;;;2.27;1.90;;;21.90;29.80;;;;;;8458001;28;20436;-56
2021/04/03 04:32:40;;;;;;;3.63;2.15;;;21.90;29.90;;;;;;8460710;28;20044;-57
2021/04/03 04:36:40;;;;;;;3.00;2.38;;;22.00;29.90;;;;;;8461977;28;20043;-57
2021/04/03 04:40:41;;;;;;;5.67;2.37;;;22.00;29.80;;;;;;8484128;27;20036;-57
2021/04/03 04:44:41;;;;;;;2.63;2.10;;;22.00;29.80;;;;;;8495677;27;20414;-57
2021/04/03 04:48:42;;;;;;;2.97;2.60;;;22.00;29.80;;;;;;8473732;28;20089;-57
2021/04/03 04:52:42;;;;;;;3.00;2.03;;;22.00;29.80;;;;;;8468830;27;20519;-57
2021/04/03 04:56:43;;;;;;;2.40;1.90;;;22.00;29.70;;;;;;8467595;28;20036;-57
2021/04/03 05:00:43;;;;;;;2.47;2.03;;;22.00;29.80;;;;;;8468734;27;20067;-57
2021/04/03 05:04:44;;;;;;;2.20;2.00;;;22.00;29.70;;;;;;8473291;28;20035;-57
2021/04/03 05:08:44;;;;;;;2.60;2.13;;;22.10;29.70;;;;;;8467790;27;20069;-57
2021/04/03 05:12:45;;;;;;;2.60;2.23;;;22.10;29.70;;;;;;8468648;27;20188;-57
2021/04/03 05:16:45;;;;;;;3.47;2.50;;;22.10;29.70;;;;;;8481046;27;20061;-57
2021/04/03 05:20:46;;;;;;;3.43;2.00;;;22.10;29.70;;;;;;8500349;27;20032;-57
2021/04/03 05:24:46;;;;;;;3.40;2.40;;;22.10;29.60;;;;;;8507249;27;20019;-57
2021/04/03 05:28:47;;;;;;;2.77;2.33;;;22.10;29.60;;;;;;8475335;27;20039;-57
2021/04/03 05:32:48;;;;;;;2.65;1.77;;;22.10;29.50;;;;;;8466443;27;20039;-57
2021/04/03 05:36:48;;;;;;;2.80;2.17;;;22.20;29.60;;;;;;8468604;27;20039;-57
2021/04/03 05:40:49;;;;;;;2.80;2.50;;;22.20;29.60;;;;;;8472911;28;20035;-57
2021/04/03 05:44:49;;;;;;;3.00;2.10;;;22.20;29.60;;;;;;8496502;27;20392;-57
2021/04/03 05:48:51;;;;;;;3.50;2.27;;;22.20;29.50;;;;;;8478440;27;20081;-57
2021/04/03 05:52:52;;;;;;;2.97;2.30;;;22.20;29.50;;;;;;8463518;27;20051;-57
2021/04/03 05:56:54;;;;;;;2.22;2.03;;;22.20;29.50;;;;;;8462335;28;20024;-57
2021/04/03 06:00:55;;;;;;;4.40;2.50;;;22.20;29.50;;;;;;8465916;28;20028;-57
2021/04/03 06:04:56;;;;;;;2.90;2.38;;;22.20;29.50;;;;;;8462199;28;20438;-57
2021/04/03 06:08:56;;;;;;;2.70;2.10;;;22.20;29.40;;;;;;8460881;28;20057;-57
2021/04/03 06:12:57;;;;;;;2.30;1.73;;;22.20;29.50;;;;;;8462174;28;20040;-57
2021/04/03 06:16:57;;;;;;;4.20;2.13;;;22.20;29.90;;;;;;8466631;28;20780;-57
2021/04/03 06:21:07;;;;;;;3.43;2.23;;;22.20;29.40;;;;;;8460145;28;20035;-57
2021/04/03 06:25:09;;;;;;;3.22;2.00;;;22.20;29.50;;;;;;8461569;28;20051;-57
2021/04/03 06:29:32;;;;;;;2.58;1.90;;;22.20;29.50;;;;;;8461664;28;20078;-57
2021/04/03 06:33:34;;;;;;;2.55;1.98;;;22.20;29.40;;;;;;8461874;27;20043;-57
2021/04/03 06:37:37;;;;;;;3.88;2.08;;;22.20;29.40;;;;;;8499866;27;20453;-57
2021/04/03 06:41:39;;;;;;;2.58;1.85;;;22.30;29.40;;;;;;8466572;27;20060;-57
2021/04/03 06:45:41;;;;;;;2.53;2.10;;;22.30;29.40;;;;;;8460982;28;20114;-57
2021/04/03 06:49:41;;;;;;;2.35;1.90;;;22.30;29.40;;;;;;8460948;28;20576;-57
2021/04/03 06:53:42;;;;;;;3.45;2.20;;;22.30;29.40;;;;;;8463823;28;20027;-57
2021/04/03 06:57:45;;;;;;;4.13;2.45;;;22.30;29.30;;;;;;8460775;28;20035;-57
2021/04/03 07:01:56;;;;;;;3.30;2.15;;;22.30;29.70;;;;;;8460074;28;20036;-57
2021/04/03 07:05:57;;;;;;;3.05;2.13;;;22.30;29.30;;;;;;8458651;28;20484;-57
2021/04/03 07:09:58;;;;;;;2.13;1.73;;;22.30;29.20;;;;;;8460552;28;20051;-56
2021/04/03 07:14:03;;;;;;;4.38;2.05;;;22.30;29.20;;;;;;8464863;28;20710;-56
2021/04/03 07:18:09;;;;;;;3.65;2.35;;;22.30;29.20;;;;;;8458244;28;20156;-56
2021/04/03 07:22:09;;;;;;;3.35;1.98;;;22.30;29.10;;;;;;8460250;28;20122;-56
2021/04/03 07:26:12;;;;;;;3.17;1.90;;;22.30;29.10;;;;;;8458048;28;20061;-55
2021/04/03 07:30:33;;;;;;;2.67;2.00;;;22.40;29.10;;;;;;8464079;28;20035;-56
2021/04/03 07:34:41;;;;;;;2.30;1.73;;;22.40;29.10;;;;;;8463588;28;20409;-56
2021/04/03 07:38:42;;;;;;;3.85;1.75;;;22.40;29.00;;;;;;8457611;27;20579;-57
2021/04/03 07:42:42;;;;;;;2.20;1.50;;;22.50;28.90;;;;;;8459149;28;20039;-57
2021/04/03 07:46:47;;;;;;;2.20;1.63;;;22.50;28.90;;;;;;8459054;28;20545;-57
2021/04/03 07:50:48;;;;;;;3.67;2.00;;;22.50;28.90;;;;;;8461817;28;20046;-57
2021/04/03 07:54:48;;;;;;;2.58;1.60;;;22.50;28.90;;;;;;8459183;28;20059;-56
2021/04/03 07:58:59;;;;;;;3.73;1.70;;;22.50;28.90;;;;;;8459069;28;20039;-57
2021/04/03 08:03:04;;;;;;;2.00;1.70;;;22.50;28.80;;;;;;8457298;28;20039;-57
2021/04/03 08:07:05;;;;;;;2.25;1.75;;;22.50;28.80;;;;;;8458617;28;20501;-57
2021/04/03 08:11:11;;;;;;;2.92;1.63;;;22.50;28.80;;;;;;8462354;28;20050;-57
2021/04/03 08:15:17;;;;;;;2.45;1.60;;;22.50;28.80;;;;;;8483273;27;20460;-57
2021/04/03 08:19:26;;;;;;;1.90;1.70;;;22.60;28.80;;;;;;8474775;27;20448;-57
2021/04/03 08:23:34;;;;;;;2.55;1.98;;;22.60;28.80;;;;;;8456726;28;20045;-57
2021/04/03 08:27:37;;;;;;;4.40;2.22;;;22.60;28.80;;;;;;8462859;28;20394;-57
2021/04/03 08:31:37;;;;;;;2.22;1.80;;;22.60;28.90;;;;;;8457908;28;20104;-57
2021/04/03 08:35:41;;;;;;;5.17;1.70;;;22.60;28.70;;;;;;8455987;28;20032;-57
2021/04/03 08:39:42;;;;;;;2.65;1.50;;;22.60;28.80;;;;;;8458366;28;20036;-57
2021/04/03 08:43:42;;;;;;;3.03;1.47;;;22.60;28.70;;;;;;8458066;28;20027;-57
2021/04/03 08:47:43;;;;;;;2.05;1.58;;;22.60;28.70;;;;;;8460364;28;20122;-57
2021/04/03 08:51:43;;;;;;;1.77;1.50;;;22.70;28.70;;;;;;8457817;28;20044;-57
2021/04/03 08:55:44;;;;;;;2.50;2.00;;;22.70;28.70;;;;;;8457574;28;20480;-54
2021/04/03 08:59:44;;;;;;;2.83;2.30;;;22.70;28.70;;;;;;8455893;28;20035;-56
2021/04/03 09:03:48;;;;;;;4.53;2.10;;;22.70;28.70;;;;;;8462097;28;20024;-57
2021/04/03 09:07:49;;;;;;;3.00;2.22;;;22.70;28.60;;;;;;8457701;28;20305;-56
2021/04/03 09:12:07;;;;;;;3.10;2.37;;;22.70;28.50;;;;;;8455551;28;20128;-55
2021/04/03 09:16:09;;;;;;;4.45;3.13;;;22.70;28.60;;;;;;8471366;28;20043;-55
2021/04/03 09:20:14;;;;;;;2.83;2.42;;;22.70;29.00;;;;;;8486923;28;20449;-55
2021/04/03 09:24:38;;;;;;;3.35;3.03;;;22.70;28.60;;;;;;8464222;28;20032;-55
2021/04/03 09:28:41;;;;;;;4.57;3.15;;;22.70;28.60;;;;;;8463482;28;20039;-55
2021/04/03 09:32:47;;;;;;;3.25;2.60;;;22.70;28.60;;;;;;8461464;28;20118;-55
2021/04/03 09:36:52;;;;;;;3.13;2.45;;;22.70;28.60;;;;;;8475522;27;20085;-54
2021/04/03 09:40:52;;;;;;;4.20;2.40;;;22.70;28.60;;;;;;8493357;27;20042;-54
2021/04/03 09:44:54;;;;;;;2.53;2.20;;;22.70;28.60;;;;;;8465830;28;20028;-54
2021/04/03 09:48:56;;;;;;;4.05;3.05;;;22.70;29.00;;;;;;8463078;28;20513;-55
2021/04/03 09:52:56;;;;;;;3.38;2.17;;;22.70;28.60;;;;;;8479630;27;20039;-55
2021/04/03 09:56:57;;;;;;;4.17;2.40;;;22.70;28.50;;;;;;8487434;27;20092;-55
2021/04/03 10:00:58;;;;;;;3.28;2.45;;;22.70;28.50;;;;;;8467331;28;20130;-55
2021/04/03 10:04:58;;;;;;;3.37;2.27;;;22.70;28.50;;;;;;8492955;27;20037;-55
2021/04/03 10:08:59;;;;;;;3.00;2.53;;;22.70;28.50;;;;;;8473322;27;20536;-55
2021/04/03 10:12:59;;;;;;;2.87;1.93;;;22.70;28.50;;;;;;8462346;28;20392;-56
2021/04/03 10:17:00;;;;;;;2.97;2.10;;;22.70;28.50;;;;;;8461995;28;20034;-57
2021/04/03 10:21:01;;;;;;;3.47;2.00;;;22.70;28.50;;;;;;8464602;28;20392;-56
2021/04/03 10:25:02;;;;;;;4.28;1.92;;;22.70;28.50;;;;;;8462415;27;20043;-56
2021/04/03 10:29:04;;;;;;;4.47;1.92;;;22.70;28.40;;;;;;8461678;28;20040;-56
2021/04/03 10:33:05;;;;;;;3.03;2.17;;;22.70;28.40;;;;;;8460121;28;20492;-56
2021/04/03 10:37:05;;;;;;;2.08;1.88;;;22.70;28.40;;;;;;8465071;28;20028;-55
2021/04/03 10:41:07;;;;;;;2.20;2.00;;;22.70;28.40;;;;;;8461556;28;20123;-56
2021/04/03 10:45:08;;;;;;;2.78;1.80;;;22.80;28.40;;;;;;8459751;28;20423;-56
2021/04/03 10:49:09;;;;;;;3.17;1.88;;;22.80;28.50;;;;;;8461489;28;20384;-55
2021/04/03 10:53:10;;;;;;;2.07;1.87;;;22.80;28.40;;;;;;8465116;28;20058;-56
2021/04/03 10:57:10;;;;;;;2.60;1.90;;;22.80;28.50;;;;;;8459375;28;20051;-56
2021/04/03 11:01:11;;;;;;;2.43;1.60;;;22.70;28.40;;;;;;8460697;28;20446;-55
2021/04/03 11:05:12;;;;;;;2.10;1.67;;;22.80;28.80;;;;;;8458664;28;20527;-56
2021/04/03 11:09:13;;;;;;;2.38;1.85;;;22.80;28.40;;;;;;8460736;27;20045;-55
2021/04/03 11:13:13;;;;;;;3.07;1.43;;;22.80;28.40;;;;;;8464901;28;20048;-56
2021/04/03 11:17:14;;;;;;;3.63;1.87;;;22.70;28.30;;;;;;8458854;27;20036;-54
2021/04/03 11:21:14;;;;;;;2.23;1.60;;;22.80;28.20;;;;;;8460579;28;20039;-56
2021/04/03 11:25:15;;;;;;;1.80;1.70;;;22.80;28.30;;;;;;8459912;28;20058;-56
2021/04/03 11:29:16;;;;;;;1.83;1.60;;;22.80;28.30;;;;;;8462415;28;20066;-55
2021/04/03 11:33:16;;;;;;;2.53;1.83;;;22.80;28.30;;;;;;8459873;28;20043;-55
2021/04/03 11:37:17;;;;;;;3.40;1.50;;;22.80;28.30;;;;;;8459703;28;20034;-56
2021/04/03 11:41:17;;;;;;;2.23;1.80;;;22.80;28.30;;;;;;8457867;28;20277;-56
2021/04/03 11:45:19;;;;;;;2.03;1.70;;;22.80;28.20;;;;;;8460795;28;20076;-56
2021/04/03 11:49:20;;;;;;;1.92;1.50;;;22.80;28.20;;;;;;8495082;27;20035;-56
2021/04/03 11:53:22;;;;;;;1.50;1.40;;;22.80;28.20;;;;;;8467028;27;20569;-56
2021/04/03 11:57:22;;;;;;;2.00;1.60;;;22.80;28.20;;;;;;8458959;28;20038;-55
2021/04/03 12:01:23;;;;;;;2.93;1.70;;;22.80;28.20;;;;;;8458965;28;20046;-56
2021/04/03 12:05:23;;;;;;;2.63;2.20;;;22.80;28.20;;;;;;8461297;28;20074;-56
2021/04/03 12:09:24;;;;;;;2.37;1.53;;;22.90;28.20;;;;;;8458442;28;20126;-56
2021/04/03 12:13:26;;;;;;;3.03;1.77;;;22.80;28.20;;;;;;8459340;28;20468;-56
2021/04/03 12:17:26;;;;;;;2.35;1.50;;;22.90;28.10;;;;;;8456843;28;20442;-56
2021/04/03 12:21:28;;;;;;;1.93;1.60;;;22.90;28.20;;;;;;8462958;28;20024;-54
2021/04/03 12:25:29;;;;;;;1.92;1.60;;;22.90;28.20;;;;;;8458420;28;20036;-55
2021/04/03 12:29:30;;;;;;;1.50;1.40;;;22.90;28.10;;;;;;8456594;28;21606;-55
2021/04/03 12:33:30;;;;;;;1.63;1.43;;;22.90;28.10;;;;;;8457758;28;20116;-55
2021/04/03 12:37:31;;;;;;;1.50;1.40;;;22.90;28.00;;;;;;8458092;28;20032;-55
2021/04/03 12:41:34;;;;;;;2.03;1.60;;;22.90;28.10;;;;;;8460972;28;20024;-55
2021/04/03 12:45:35;;;;;;;2.22;1.73;;;22.90;28.00;;;;;;8457702;28;20381;-54
2021/04/03 12:49:35;;;;;;;3.07;1.60;;;22.90;28.00;;;;;;8457765;28;20048;-55
2021/04/03 12:53:37;;;;;;;2.20;1.60;;;22.90;28.00;;;;;;8456102;28;20042;-55
2021/04/03 12:57:38;;;;;;;2.55;1.60;;;22.90;27.90;;;;;;8463602;28;20480;-54
2021/04/03 13:01:38;;;;;;;2.27;1.70;;;22.90;27.90;;;;;;8464928;28;20118;-56
2021/04/03 13:05:39;;;;;;;2.70;2.13;;;22.90;27.90;;;;;;8462609;28;20495;-55
2021/04/03 13:09:39;;;;;;;3.90;1.63;;;22.90;27.90;;;;;;8464384;28;20023;-54
2021/04/03 13:13:40;;;;;;;2.47;1.90;;;22.90;27.90;;;;;;8468633;28;20039;-55
2021/04/03 13:17:40;;;;;;;3.55;2.13;;;22.90;27.80;;;;;;8461690;28;20370;-56
2021/04/03 13:21:41;;;;;;;3.33;2.03;;;22.90;27.90;;;;;;8464012;28;20035;-55
2021/04/03 13:25:42;;;;;;;2.30;1.70;;;23.00;27.80;;;;;;8463652;28;20124;-55
2021/04/03 13:29:42;;;;;;;2.97;2.13;;;23.00;27.80;;;;;;8461625;28;20285;-56
2021/04/03 13:33:43;;;;;;;2.03;1.77;;;23.00;27.80;;;;;;8468121;28;20031;-55
2021/04/03 13:37:43;;;;;;;2.60;2.03;;;23.00;27.90;;;;;;8463452;28;20043;-56
2021/04/03 13:41:44;;;;;;;2.27;1.60;;;23.00;27.90;;;;;;8461557;28;20071;-55
2021/04/03 13:45:45;;;;;;;2.70;1.67;;;23.00;27.80;;;;;;8462837;28;20065;-56
2021/04/03 13:49:45;;;;;;;2.20;1.93;;;23.00;27.80;;;;;;8467183;28;20024;-56
2021/04/03 13:53:46;;;;;;;2.33;1.90;;;23.00;27.80;;;;;;8461608;28;20036;-56
2021/04/03 13:57:46;;;;;;;2.53;2.07;;;23.00;27.70;;;;;;8462931;28;20027;-55
2021/04/03 14:01:47;;;;;;;3.03;1.97;;;23.00;27.80;;;;;;8444608;27;20043;-55
2021/04/03 14:05:47;;;;;;;2.30;2.10;;;23.10;27.80;;;;;;8461608;28;20023;-54
2021/04/03 14:09:48;;;;;;;3.80;2.00;;;23.00;27.70;;;;;;8464277;28;20032;-55
2021/04/03 14:13:49;;;;;;;2.80;2.20;;;23.10;27.70;;;;;;8462383;28;20485;-55
2021/04/03 14:17:49;;;;;;;2.40;2.13;;;23.10;27.70;;;;;;8474055;27;20444;-55
2021/04/03 14:21:50;;;;;;;3.33;2.47;;;23.10;27.60;;;;;;8491666;27;20031;-55
2021/04/03 14:25:50;;;;;;;3.17;2.07;;;23.00;27.60;;;;;;8466427;28;20028;-56
2021/04/03 14:29:51;;;;;;;2.37;2.10;;;23.10;27.50;;;;;;8459957;28;20031;-55
2021/04/03 14:33:52;;;;;;;3.83;2.10;;;23.00;27.50;;;;;;8461390;28;20035;-55
2021/04/03 14:37:53;;;;;;;3.80;2.50;;;23.10;27.50;;;;;;8461107;28;20073;-55
2021/04/03 14:41:53;;;;;;;2.80;2.20;;;23.10;27.50;;;;;;8464080;28;20023;-55
2021/04/03 14:45:54;;;;;;;2.43;2.00;;;23.10;27.50;;;;;;8461151;28;20040;-54
2021/04/03 14:49:54;;;;;;;2.73;2.10;;;23.00;27.40;;;;;;8481583;27;20035;-55
2021/04/03 14:53:55;;;;;;;2.53;2.23;;;23.00;27.30;;;;;;8492146;27;20035;-55
2021/04/03 14:57:55;;;;;;;3.90;2.50;;;23.10;27.30;;;;;;8492808;27;20050;-55
2021/04/03 15:01:56;;;;;;;4.00;2.37;;;23.10;27.40;;;;;;8464893;28;20471;-55
2021/04/03 15:05:57;;;;;;;3.50;2.10;;;23.10;27.20;;;;;;8458568;28;20035;-55
2021/04/03 15:09:57;;;;;;;2.75;2.00;;;23.10;27.20;;;;;;8459998;28;20027;-55
2021/04/03 15:13:58;;;;;;;2.87;2.03;;;23.10;27.30;;;;;;8460353;28;20381;-55
2021/04/03 15:17:58;;;;;;;3.60;2.00;;;23.10;27.30;;;;;;8462983;28;20477;-55
2021/04/03 15:21:59;;;;;;;2.92;2.13;;;23.10;27.20;;;;;;8483709;27;20068;-55
2021/04/03 15:25:59;;;;;;;4.03;2.30;;;23.00;27.20;;;;;;8459730;27;20081;-55
2021/04/03 15:30:00;;;;;;;3.03;2.33;;;23.00;27.20;;;;;;8457661;28;20035;-54
2021/04/03 15:34:01;;;;;;;3.47;2.47;;;23.10;27.10;;;;;;8463754;28;20027;-55
2021/04/03 15:38:01;;;;;;;3.17;2.23;;;23.00;27.10;;;;;;8459295;28;20101;-55
2021/04/03 15:42:03;;;;;;;3.50;2.37;;;23.00;27.10;;;;;;8458177;28;20572;-56
2021/04/03 15:46:03;;;;;;;3.80;2.17;;;23.00;27.10;;;;;;8459278;28;20039;-55
2021/04/03 15:50:05;;;;;;;4.50;2.63;;;23.00;27.10;;;;;;8458442;28;20070;-56
2021/04/03 15:54:06;;;;;;;3.75;2.15;;;23.00;27.00;;;;;;8461546;28;20319;-56
2021/04/03 15:58:07;;;;;;;4.55;2.17;;;23.00;27.00;;;;;;8459464;27;20495;-55
2021/04/03 16:02:08;;;;;;;3.17;2.50;;;23.00;27.20;;;;;;8458799;28;20081;-55
2021/04/03 16:06:08;;;;;;;4.10;2.55;;;22.90;27.00;;;;;;8456667;28;20350;-56
2021/04/03 16:10:10;;;;;;;2.37;2.10;;;23.00;27.10;;;;;;8462859;28;20036;-56
2021/04/03 16:14:11;;;;;;;3.28;2.40;;;23.00;27.10;;;;;;8457089;28;20269;-53
2021/04/03 16:18:12;;;;;;;3.30;2.10;;;23.00;27.00;;;;;;8458070;28;20118;-55
2021/04/03 16:22:13;;;;;;;3.88;2.63;;;23.00;27.10;;;;;;8468797;27;20031;-56
2021/04/03 16:26:13;;;;;;;2.50;2.03;;;22.90;27.10;;;;;;8490911;27;20031;-55
2021/04/03 16:30:14;;;;;;;3.70;2.57;;;22.90;27.10;;;;;;8461827;28;20434;-55
2021/04/03 16:34:15;;;;;;;3.10;2.40;;;22.90;27.00;;;;;;8481747;27;20365;-54
2021/04/03 16:38:15;;;;;;;3.40;2.33;;;22.90;27.10;;;;;;8475485;27;20032;-55
2021/04/03 16:42:16;;;;;;;2.53;1.90;;;22.90;27.10;;;;;;8457725;28;20085;-55
2021/04/03 16:46:17;;;;;;;3.37;2.40;;;22.90;27.00;;;;;;8462316;28;20760;-55
2021/04/03 16:50:17;;;;;;;6.57;2.87;;;22.90;27.00;;;;;;8455861;28;20040;-54
2021/04/03 16:54:18;;;;;;;2.83;2.27;;;22.90;27.10;;;;;;8457503;28;20274;-55
2021/04/03 16:58:18;;;;;;;3.57;2.10;;;22.90;27.10;;;;;;8465397;28;20028;-55
2021/04/03 17:02:19;;;;;;;2.90;2.10;;;22.90;27.20;;;;;;8475334;28;20039;-55
2021/04/03 17:06:19;;;;;;;3.20;2.30;;;22.90;27.20;;;;;;8459989;28;20040;-54
2021/04/03 17:10:20;;;;;;;3.33;2.07;;;22.90;27.10;;;;;;8457147;28;20079;-55
2021/04/03 17:14:20;;;;;;;3.53;2.50;;;22.90;27.10;;;;;;8455932;28;20043;-54
2021/04/03 17:18:21;;;;;;;2.27;2.07;;;22.90;27.10;;;;;;8457056;28;20254;-54
2021/04/03 17:22:23;;;;;;;3.33;2.33;;;22.90;27.10;;;;;;8461383;28;20031;-55
2021/04/03 17:26:23;;;;;;;4.57;2.17;;;22.90;27.10;;;;;;8456123;28;20266;-55
2021/04/03 17:30:24;;;;;;;3.10;2.60;;;22.90;27.00;;;;;;8457138;28;20076;-55
2021/04/03 17:34:24;;;;;;;4.00;2.00;;;22.90;27.00;;;;;;8456810;28;20479;-54
2021/04/03 17:38:25;;;;;;;2.20;2.00;;;22.80;27.00;;;;;;8459711;28;20042;-55
2021/04/03 17:42:26;;;;;;;2.93;2.13;;;22.80;27.10;;;;;;8457189;28;20067;-55
2021/04/03 17:46:26;;;;;;;2.07;1.87;;;22.80;27.10;;;;;;8463303;27;20027;-55
2021/04/03 17:50:27;;;;;;;3.23;2.27;;;22.80;27.00;;;;;;8469375;27;20880;-55
2021/04/03 17:54:27;;;;;;;3.40;2.43;;;22.80;27.00;;;;;;8501513;27;20034;-55
2021/04/03 17:58:28;;;;;;;3.00;2.27;;;22.80;27.00;;;;;;8463565;27;20053;-55
2021/04/03 18:02:29;;;;;;;2.23;2.03;;;22.80;27.00;;;;;;8461006;28;20039;-55
2021/04/03 18:06:29;;;;;;;2.50;2.20;;;22.80;27.00;;;;;;8462738;28;20273;-56
2021/04/03 18:10:31;;;;;;;2.50;1.90;;;22.80;27.10;;;;;;8462107;28;20489;-54
2021/04/03 18:14:32;;;;;;;2.47;2.00;;;22.80;27.00;;;;;;8464916;28;20045;-54
2021/04/03 18:18:32;;;;;;;2.33;1.95;;;22.80;27.10;;;;;;8462021;28;20077;-55
2021/04/03 18:22:34;;;;;;;2.30;1.93;;;22.80;27.10;;;;;;8462090;28;20034;-54
2021/04/03 18:26:34;;;;;;;;;;;22.80;27.10;;;;;;8460570;28;20028;-55
2021/04/03 18:30:36;;;;;;;2.90;2.27;;;22.80;27.10;;;;;;8466387;28;19961;-55
2021/04/03 18:34:38;;;;;;;2.60;2.10;;;22.70;27.10;;;;;;8462013;27;20055;-55
2021/04/03 18:38:38;;;;;;;3.25;2.28;;;22.80;27.10;;;;;;8459809;28;20068;-56
2021/04/03 18:42:39;;;;;;;3.65;2.65;;;22.70;27.00;;;;;;8461646;27;20461;-56
2021/04/03 18:46:40;;;;;;;3.95;2.30;;;22.70;27.10;;;;;;8462323;28;20036;-55
2021/04/03 18:50:42;;;;;;;2.70;2.00;;;22.70;27.00;;;;;;8463846;28;20085;-55
2021/04/03 18:54:43;;;;;;;2.92;2.17;;;22.70;27.00;;;;;;8460648;28;20036;-54
2021/04/03 18:58:43;;;;;;;3.03;1.90;;;22.70;27.10;;;;;;8460955;28;20035;-54
2021/04/03 19:02:44;;;;;;;3.97;2.00;;;22.70;27.10;;;;;;8458833;28;20435;-54
2021/04/03 19:06:45;;;;;;;3.72;2.05;;;22.70;27.10;;;;;;8465381;28;20040;-54
2021/04/03 19:10:46;;;;;;;3.40;2.20;;;22.70;27.10;;;;;;8487914;27;20043;-54
2021/04/03 19:14:46;;;;;;;2.17;1.73;;;22.70;27.10;;;;;;8474330;27;20042;-54
2021/04/03 19:18:47;;;;;;;2.53;1.90;;;22.70;27.20;;;;;;8460368;28;20375;-54
2021/04/03 19:22:47;;;;;;;2.47;1.83;;;22.70;27.10;;;;;;8464385;28;20032;-54
2021/04/03 19:26:48;;;;;;;3.40;2.50;;;22.70;27.10;;;;;;8458278;28;20035;-54
2021/04/03 19:30:48;;;;;;;2.87;2.23;;;22.70;27.10;;;;;;8459902;28;20039;-54
2021/04/03 19:34:49;;;;;;;3.60;2.47;;;22.70;27.00;;;;;;8459503;28;20039;-55
2021/04/03 19:38:49;;;;;;;4.07;2.30;;;22.70;27.00;;;;;;8458114;28;20123;-55
2021/04/03 19:42:50;;;;;;;4.30;2.57;;;22.70;27.00;;;;;;8463599;28;20347;-54
2021/04/03 19:46:50;;;;;;;4.60;2.50;;;22.70;27.00;;;;;;8459407;28;20036;-54
2021/04/03 19:50:51;;;;;;;4.87;2.30;;;22.70;27.10;;;;;;8472828;27;20122;-54
2021/04/03 19:54:51;;;;;;;4.83;2.40;;;22.70;27.00;;;;;;8487110;27;20024;-55
2021/04/03 19:58:52;;;;;;;5.63;2.37;;;22.70;27.10;;;;;;8463301;28;20112;-55
2021/04/03 20:02:53;;;;;;;3.53;2.20;;;22.70;27.10;;;;;;8485838;27;20034;-55
2021/04/03 20:06:54;;;;;;;5.37;2.53;;;22.70;27.10;;;;;;8472149;27;20043;-55
2021/04/03 20:10:54;;;;;;;4.10;2.47;;;22.70;27.00;;;;;;8458646;28;20031;-55
2021/04/03 20:14:56;;;;;;;3.27;2.23;;;22.70;27.00;;;;;;8461828;28;20540;-55
2021/04/03 20:18:56;;;;;;;3.47;2.22;;;22.70;27.00;;;;;;8458576;28;20750;-54
2021/04/03 20:22:57;;;;;;;4.37;2.43;;;22.70;27.10;;;;;;8458280;28;20046;-55
2021/04/03 20:26:57;;;;;;;2.77;2.23;;;22.60;27.00;;;;;;8469177;27;20498;-55
2021/04/03 20:30:58;;;;;;;3.70;2.43;;;22.70;27.00;;;;;;8488706;27;20042;-55
2021/04/03 20:34:58;;;;;;;4.53;2.17;;;22.70;27.10;;;;;;8462516;28;20503;-55
2021/04/03 20:38:59;;;;;;;3.17;2.50;;;22.60;27.00;;;;;;8456142;28;20031;-54
2021/04/03 20:43:00;;;;;;;4.13;2.47;;;22.60;26.90;;;;;;8458315;28;20031;-55
2021/04/03 20:47:00;;;;;;;3.20;2.40;;;22.50;26.90;;;;;;8458185;28;20520;-55
2021/04/03 20:51:01;;;;;;;3.93;2.27;;;22.50;26.90;;;;;;8460590;28;20028;-55
2021/04/03 20:55:03;;;;;;;3.60;2.35;;;22.50;26.90;;;;;;8457845;28;20043;-55
2021/04/03 20:59:04;;;;;;;3.28;2.10;;;22.50;26.90;;;;;;8457478;28;20046;-55